Grosse Pointe Farms, Michigan
Current Conditions -  °F | °C
As of 8:53 AM on Thursday 29 Jan 2015 (Local Time) from KDET Reporting Station
Overcast Overcast  
Wind Chill: 26°   Ceiling: 4800
Heat Index: 32°   Visibility: 10mi
Dew Point: 21°   Wind: 6mph
Humidity: 64%   Direction: 160°SSE
Pressure: 29.8"   Gusts: NA
Location:  42.4243°N, 82.8975°W
Report Text: KDET 291353Z 16005KT 10SM OVC048 00/M06 A2980 RMK AO2 SLP098 T00001061
Loading
Personal Weather Stations






























Interactive Weather Map New forecast layout! Learn more

10-Day Weather Forecast

Advertisements
Track Severe Weather on mobile